Time;durP1;ratioP1;P1;durP2;ratioP2;P2;SDS_P1;SDS_P2;PMS_P1;PMS_P2;Temp;Humidity;BMP_temperature;BMP_pressure;BME280_temperature;BME280_humidity;BME280_pressure;Samples;Min_cycle;Max_cycle;Signal;HPM_P1;HPM_P2
2021/03/13 00:01:18;;;;;;;53.83;32.10;;;;;;;2.50;92.72;98401.97;1827370;77;21572;-57
2021/03/13 00:03:46;;;;;;;50.17;29.72;;;;;;;2.52;92.50;98402.48;1827115;78;21154;-58
2021/03/13 00:06:14;;;;;;;46.28;29.67;;;;;;;2.52;92.63;98396.50;1827365;77;21157;-58
2021/03/13 00:08:42;;;;;;;47.43;29.80;;;;;;;2.52;92.56;98390.13;1827072;77;21272;-57
2021/03/13 00:11:11;;;;;;;47.62;30.02;;;;;;;2.51;92.46;98394.37;1827376;78;21157;-57
2021/03/13 00:13:40;;;;;;;45.90;30.05;;;;;;;2.51;92.47;98396.05;1827096;78;21142;-56
2021/03/13 00:16:08;;;;;;;50.85;31.30;;;;;;;2.51;92.46;98399.87;1827428;78;21161;-62
2021/03/13 00:18:36;;;;;;;44.73;31.33;;;;;;;2.53;92.51;98401.66;1827477;77;21138;-61
2021/03/13 00:21:06;;;;;;;45.50;30.10;;;;;;;2.53;92.31;98399.11;1827269;77;21216;-59
2021/03/13 00:23:33;;;;;;;45.85;28.57;;;;;;;2.53;92.32;98396.98;1827257;77;21192;-61
2021/03/13 00:26:02;;;;;;;47.48;29.57;;;;;;;2.53;92.38;98390.61;1827252;78;21158;-56
2021/03/13 00:28:30;;;;;;;43.65;29.45;;;;;;;2.54;92.29;98396.15;1827275;77;21280;-59
2021/03/13 00:30:59;;;;;;;45.85;28.65;;;;;;;2.51;92.26;98390.55;1827577;78;21235;-55
2021/03/13 00:33:28;;;;;;;48.50;30.90;;;;;;;2.53;92.32;98391.88;1827276;78;21114;-56
2021/03/13 00:35:56;;;;;;;49.77;29.57;;;;;;;2.54;92.30;98392.33;1827359;77;21138;-58
2021/03/13 00:38:24;;;;;;;51.10;29.82;;;;;;;2.58;92.40;98385.26;1827218;78;21261;-59
2021/03/13 00:40:52;;;;;;;48.60;30.20;;;;;;;2.60;92.16;98382.36;1827335;78;21272;-57
2021/03/13 00:43:21;;;;;;;55.88;34.08;;;;;;;2.65;92.15;98389.75;1827239;77;21268;-60
2021/03/13 00:45:50;;;;;;;52.43;32.20;;;;;;;2.68;92.02;98397.48;1827387;78;21303;-59
2021/03/13 00:48:18;;;;;;;55.45;32.08;;;;;;;2.68;91.89;98401.30;1827241;77;21154;-60
2021/03/13 00:50:47;;;;;;;54.77;32.63;;;;;;;2.68;91.69;98408.09;1827438;78;21130;-57
2021/03/13 00:53:16;;;;;;;48.45;30.27;;;;;;;2.66;91.65;98405.48;1827358;78;21142;-60
2021/03/13 00:55:44;;;;;;;49.70;29.65;;;;;;;2.67;91.78;98403.41;1827239;78;21308;-59
2021/03/13 00:58:14;;;;;;;47.62;29.72;;;;;;;2.69;91.59;98407.26;1826847;77;21530;-57
2021/03/13 01:00:44;;;;;;;50.50;30.15;;;;;;;2.67;91.53;98405.06;1826895;77;21110;-55
2021/03/13 01:03:14;;;;;;;53.30;33.08;;;;;;;2.64;91.50;98405.83;1827518;78;21529;-54
2021/03/13 01:05:42;;;;;;;55.28;32.40;;;;;;;2.61;91.53;98407.86;1827502;78;21151;-60
2021/03/13 01:08:12;;;;;;;48.20;29.80;;;;;;;2.59;91.48;98411.17;1827175;78;21086;-61
2021/03/13 01:10:42;;;;;;;46.15;29.23;;;;;;;2.55;91.62;98411.91;1826292;77;21139;-56
2021/03/13 01:13:12;;;;;;;43.08;26.37;;;;;;;2.55;91.84;98411.91;1814557;78;21715;-58
2021/03/13 01:15:41;;;;;;;39.48;25.75;;;;;;;2.55;91.89;98410.22;1777376;80;21146;-59
2021/03/13 01:18:12;;;;;;;42.73;25.88;;;;;;;2.58;91.95;98418.38;1795128;80;21287;-57
2021/03/13 01:20:42;;;;;;;38.50;25.45;;;;;;;2.58;91.85;98417.09;1794820;79;21141;-58
2021/03/13 01:23:10;;;;;;;39.92;25.25;;;;;;;2.61;91.97;98429.93;1794983;80;21138;-53
2021/03/13 01:25:38;;;;;;;39.88;24.50;;;;;;;2.60;91.97;98432.89;1795161;80;21150;-55
2021/03/13 01:28:06;;;;;;;37.75;25.27;;;;;;;2.62;91.82;98434.23;1794813;78;21136;-55
2021/03/13 01:30:36;;;;;;;37.67;25.27;;;;;;;2.63;91.85;98442.31;1794597;79;21163;-58
2021/03/13 01:33:04;;;;;;;34.95;24.30;;;;;;;2.66;91.91;98442.83;1795216;80;21286;-54
2021/03/13 01:35:32;;;;;;;40.83;25.77;;;;;;;2.70;91.96;98446.81;1795077;80;21278;-58
2021/03/13 01:38:01;;;;;;;42.45;28.17;;;;;;;2.74;91.89;98451.17;1794857;80;21215;-57
2021/03/13 01:40:29;;;;;;;45.88;28.57;;;;;;;2.78;91.72;98453.02;1795786;78;21265;-57
2021/03/13 01:42:57;;;;;;;42.40;25.95;;;;;;;2.81;91.55;98453.53;1827610;77;21280;-55
2021/03/13 01:45:27;;;;;;;40.65;26.00;;;;;;;2.78;91.33;98451.75;1827179;77;21284;-59
2021/03/13 01:47:57;;;;;;;48.38;27.20;;;;;;;2.77;91.41;98466.59;1827296;78;21130;-56
2021/03/13 01:50:26;;;;;;;46.18;28.90;;;;;;;2.73;91.32;98462.20;1825818;77;21158;-55
2021/03/13 01:52:54;;;;;;;40.98;26.77;;;;;;;2.74;91.46;98457.55;1817252;78;21260;-58
2021/03/13 01:55:24;;;;;;;40.50;25.20;;;;;;;2.76;91.45;98467.39;1794993;79;21588;-56
2021/03/13 01:57:54;;;;;;;37.17;24.57;;;;;;;2.78;91.42;98467.03;1794550;79;21150;-57
2021/03/13 02:00:25;;;;;;;37.45;24.67;;;;;;;2.72;91.29;98473.21;1787488;80;21151;-59
2021/03/13 02:02:58;;;;;;;39.00;26.35;;;;;;;2.66;91.33;98475.95;1780919;80;21552;-61
2021/03/13 02:05:30;;;;;;;38.00;24.90;;;;;;;2.59;91.52;98481.22;1790172;78;21257;-62
2021/03/13 02:08:21;;;;;;;41.13;25.12;;;;;;;2.54;91.64;98484.87;1800594;78;21269;-61
2021/03/13 02:11:25;;;;;;;36.42;24.32;;;;;;;2.53;91.90;98489.52;1781010;79;21115;-60
2021/03/13 02:14:02;;;;;;;37.10;23.30;;;;;;;2.57;92.11;98498.13;1781016;80;21147;-56
2021/03/13 02:17:00;;;;;;;36.90;23.15;;;;;;;2.65;92.04;98499.28;1780980;80;21134;-57
2021/03/13 02:20:16;;;;;;;36.65;24.02;;;;;;;2.66;92.02;98503.55;1781217;80;21293;-56
2021/03/13 02:22:50;;;;;;;37.13;24.47;;;;;;;2.70;91.98;98499.04;1780865;79;21131;-60
2021/03/13 02:26:15;;;;;;;36.93;24.52;;;;;;;2.69;91.92;98504.92;1780944;80;21174;-61
2021/03/13 02:29:16;;;;;;;36.13;23.92;;;;;;;2.65;91.86;98507.34;1780576;80;21707;-59
2021/03/13 02:31:54;;;;;;;40.77;24.63;;;;;;;2.59;92.01;98514.34;1780998;79;21135;-54
2021/03/13 02:34:31;;;;;;;36.42;23.35;;;;;;;2.56;92.24;98514.23;1781174;79;21272;-60
2021/03/13 02:37:08;;;;;;;35.20;22.90;;;;;;;2.63;92.45;98512.38;1785013;79;21162;-57
2021/03/13 02:39:40;;;;;;;37.50;24.72;;;;;;;2.69;92.55;98511.30;1811925;79;21644;-60
2021/03/13 02:42:12;;;;;;;40.28;25.27;;;;;;;2.75;92.37;98506.44;1776571;79;21309;-61
2021/03/13 02:44:42;;;;;;;39.75;25.92;;;;;;;2.76;92.41;98501.78;1793738;79;21550;-57
2021/03/13 02:47:13;;;;;;;38.88;24.32;;;;;;;2.78;92.36;98503.98;1780611;80;21715;-58
2021/03/13 02:49:46;;;;;;;39.18;25.08;;;;;;;2.80;92.40;98502.36;1780984;80;21569;-55
2021/03/13 02:52:18;;;;;;;39.95;24.55;;;;;;;2.82;92.43;98507.11;1780840;80;21139;-57
2021/03/13 02:54:48;;;;;;;43.80;27.42;;;;;;;2.88;92.39;98506.86;1781086;80;21168;-57
2021/03/13 02:57:19;;;;;;;45.28;27.30;;;;;;;2.92;92.50;98495.52;1771527;79;21163;-57
2021/03/13 02:59:49;;;;;;;47.50;29.15;;;;;;;2.98;92.38;98499.98;1801622;79;21194;-55
2021/03/13 03:02:20;;;;;;;46.88;29.10;;;;;;;3.02;92.25;98492.87;1781253;78;21566;-57
2021/03/13 03:04:50;;;;;;;43.95;27.73;;;;;;;3.01;92.11;98497.11;1781168;80;21297;-55
2021/03/13 03:07:26;;;;;;;50.58;29.48;;;;;;;3.01;92.05;98496.25;1780870;80;21170;-59
2021/03/13 03:09:56;;;;;;;45.40;28.15;;;;;;;2.99;92.17;98501.70;1786063;79;21140;-59
2021/03/13 03:12:25;;;;;;;44.33;27.32;;;;;;;3.00;92.22;98505.97;1781054;80;21249;-60
2021/03/13 03:14:57;;;;;;;44.60;27.52;;;;;;;3.02;92.19;98501.80;1782109;79;21703;-58
2021/03/13 03:17:28;;;;;;;46.90;27.98;;;;;;;3.09;92.22;98504.15;1818292;78;21571;-59
2021/03/13 03:19:58;;;;;;;46.20;29.32;;;;;;;3.12;91.93;98492.77;1818615;79;21157;-57
2021/03/13 03:22:27;;;;;;;44.83;27.45;;;;;;;3.13;91.94;98499.59;1787158;79;21280;-56
2021/03/13 03:24:57;;;;;;;42.70;27.55;;;;;;;3.11;91.83;98500.83;1818182;79;21611;-56
2021/03/13 03:27:26;;;;;;;38.35;25.97;;;;;;;3.09;91.80;98499.05;1787700;79;21125;-58
2021/03/13 03:29:54;;;;;;;43.28;26.12;;;;;;;3.03;91.91;98500.58;1818455;78;21127;-56
2021/03/13 03:32:24;;;;;;;40.80;25.20;;;;;;;2.99;91.91;98508.07;1817768;78;21287;-55
2021/03/13 03:34:53;;;;;;;41.25;24.23;;;;;;;2.93;91.96;98518.07;1818499;78;21141;-56
2021/03/13 03:37:21;;;;;;;38.25;24.98;;;;;;;2.88;92.19;98522.14;1818748;79;21102;-59
2021/03/13 03:39:49;;;;;;;38.75;24.23;;;;;;;2.89;92.45;98517.50;1818471;79;21271;-59
2021/03/13 03:42:20;;;;;;;42.23;26.60;;;;;;;2.94;92.50;98524.89;1818407;79;21682;-58
2021/03/13 03:44:50;;;;;;;37.73;25.12;;;;;;;2.95;92.44;98524.95;1818666;77;21106;-59
2021/03/13 03:47:21;;;;;;;45.17;26.37;;;;;;;2.95;92.43;98536.80;1818517;79;21579;-57
2021/03/13 03:49:52;;;;;;;41.70;25.82;;;;;;;2.94;92.56;98531.26;1818575;78;21141;-56
2021/03/13 03:52:26;;;;;;;39.83;25.35;;;;;;;2.91;92.56;98532.02;1817016;78;21267;-56
2021/03/13 03:54:55;;;;;;;37.67;24.07;;;;;;;2.95;92.80;98528.78;1818490;77;21129;-57
2021/03/13 03:57:25;;;;;;;43.73;25.20;;;;;;;2.97;92.75;98532.63;1818421;77;21267;-54
2021/03/13 03:59:53;;;;;;;39.50;24.63;;;;;;;2.99;92.72;98525.50;1818591;78;21145;-57
2021/03/13 04:02:24;;;;;;;42.98;27.50;;;;;;;2.96;92.64;98534.73;1824501;78;21134;-58
2021/03/13 04:04:53;;;;;;;39.05;24.57;;;;;;;2.90;92.66;98539.61;1824476;78;21236;-56
2021/03/13 04:07:22;;;;;;;43.68;24.57;;;;;;;2.82;92.83;98547.88;1824695;79;21284;-60
2021/03/13 04:09:51;;;;;;;41.68;24.85;;;;;;;2.77;93.10;98551.05;1795374;79;21248;-58
2021/03/13 04:12:20;;;;;;;41.20;23.52;;;;;;;2.76;93.44;98545.09;1824703;77;21191;-57
2021/03/13 04:14:51;;;;;;;38.88;24.15;;;;;;;2.74;93.58;98555.63;1824438;77;21181;-55
2021/03/13 04:17:19;;;;;;;38.67;24.90;;;;;;;2.74;93.67;98557.33;1824753;79;21204;-59
2021/03/13 04:19:48;;;;;;;43.98;24.80;;;;;;;2.73;93.73;98554.33;1795541;79;21141;-56
2021/03/13 04:22:17;;;;;;;40.40;23.83;;;;;;;2.74;93.94;98555.63;1824725;78;21264;-58
2021/03/13 04:24:47;;;;;;;40.67;23.92;;;;;;;2.76;94.04;98546.38;1802364;77;21237;-58
2021/03/13 04:27:17;;;;;;;41.60;23.87;;;;;;;2.74;94.04;98554.36;1806402;79;21147;-59
2021/03/13 04:29:45;;;;;;;39.15;24.37;;;;;;;2.75;94.23;98555.25;1806840;79;21130;-56
2021/03/13 04:32:16;;;;;;;37.78;24.18;;;;;;;2.73;94.20;98553.91;1806104;79;21140;-58
2021/03/13 04:34:46;;;;;;;40.90;23.47;;;;;;;2.71;94.29;98554.27;1804381;79;21539;-60
2021/03/13 04:37:15;;;;;;;40.60;25.23;;;;;;;2.72;94.41;98557.29;1814290;77;21708;-61
2021/03/13 04:39:46;;;;;;;38.15;23.35;;;;;;;2.69;94.42;98560.98;1821449;79;21178;-59
2021/03/13 04:42:15;;;;;;;35.78;21.87;;;;;;;2.69;94.56;98564.80;1821484;77;21170;-60
2021/03/13 04:44:43;;;;;;;38.50;24.67;;;;;;;2.72;94.69;98562.77;1821294;79;21133;-59
2021/03/13 04:47:12;;;;;;;38.55;23.70;;;;;;;2.78;94.87;98565.13;1821219;79;21103;-62
2021/03/13 04:49:40;;;;;;;36.08;23.07;;;;;;;2.91;94.96;98573.22;1821623;79;21115;-60
2021/03/13 04:52:08;;;;;;;38.98;23.55;;;;;;;3.02;94.93;98573.16;1812457;78;21134;-59
2021/03/13 04:54:36;;;;;;;39.45;24.18;;;;;;;3.12;94.80;98586.69;1814627;77;21143;-64
2021/03/13 04:57:05;;;;;;;36.98;22.93;;;;;;;3.21;94.71;98581.91;1813899;78;21130;-62
2021/03/13 04:59:33;;;;;;;42.00;25.70;;;;;;;3.25;94.36;98587.55;1814269;79;21288;-61
2021/03/13 05:02:02;;;;;;;39.88;25.23;;;;;;;3.26;94.14;98589.30;1809836;77;21103;-63
2021/03/13 05:04:30;;;;;;;37.58;23.40;;;;;;;3.26;94.00;98585.89;1813071;79;21124;-62
2021/03/13 05:06:58;;;;;;;39.33;23.50;;;;;;;3.31;94.06;98592.40;1812782;78;21205;-62
2021/03/13 05:09:26;;;;;;;38.33;22.93;;;;;;;3.35;93.95;98595.11;1812808;79;21300;-61
2021/03/13 05:11:54;;;;;;;37.23;23.25;;;;;;;3.38;93.76;98595.62;1812873;79;21278;-60
2021/03/13 05:14:21;;;;;;;42.27;23.10;;;;;;;3.39;93.44;98594.83;1812850;78;21129;-59
2021/03/13 05:16:49;;;;;;;39.05;24.70;;;;;;;3.36;93.33;98590.48;1812990;78;21138;-62
2021/03/13 05:19:17;;;;;;;39.83;24.10;;;;;;;3.37;93.30;98593.90;1812769;79;21257;-62
2021/03/13 05:21:45;;;;;;;39.20;23.15;;;;;;;3.36;93.15;98595.59;1812171;79;21280;-59
2021/03/13 05:24:13;;;;;;;40.38;24.37;;;;;;;3.34;93.22;98597.22;1789838;79;21278;-60
2021/03/13 05:26:42;;;;;;;38.28;23.90;;;;;;;3.36;93.18;98603.23;1781208;80;21135;-65
2021/03/13 05:29:10;;;;;;;38.65;22.87;;;;;;;3.36;93.23;98602.34;1794498;79;21258;-60
2021/03/13 05:31:37;;;;;;;41.55;24.15;;;;;;;3.38;93.23;98608.38;1795270;79;21701;-62
2021/03/13 05:34:05;;;;;;;36.93;22.37;;;;;;;3.42;93.16;98607.67;1791517;79;21282;-61
2021/03/13 05:36:33;;;;;;;42.98;24.50;;;;;;;3.45;92.98;98610.32;1799878;79;21296;-60
2021/03/13 05:39:01;;;;;;;37.35;21.73;;;;;;;3.49;93.05;98612.17;1812830;79;21295;-61
2021/03/13 05:41:31;;;;;;;41.13;23.75;;;;;;;3.49;92.74;98618.55;1812733;78;21161;-60
2021/03/13 05:44:07;;;;;;;41.50;25.52;;;;;;;3.50;92.74;98621.55;1812885;78;21293;-61
2021/03/13 05:46:36;;;;;;;39.35;23.18;;;;;;;3.55;92.84;98624.25;1796976;79;21302;-59
2021/03/13 05:49:06;;;;;;;35.33;22.35;;;;;;;3.63;92.66;98623.67;1795823;79;21249;-60
2021/03/13 05:51:44;;;;;;;33.48;21.17;;;;;;;3.72;92.42;98629.92;1797927;79;21142;-62
2021/03/13 05:54:14;;;;;;;36.85;21.20;;;;;;;3.79;92.32;98633.11;1798093;79;21119;-61
2021/03/13 05:56:43;;;;;;;34.48;22.73;;;;;;;3.85;91.90;98639.70;1796036;78;21129;-61
2021/03/13 05:59:13;;;;;;;36.45;22.65;;;;;;;3.85;91.74;98644.81;1794963;79;21241;-60
2021/03/13 06:01:43;;;;;;;35.52;21.87;;;;;;;3.88;91.74;98647.04;1802314;79;21178;-61
2021/03/13 06:04:12;;;;;;;38.67;23.00;;;;;;;3.95;91.41;98657.05;1800384;79;21590;-60
2021/03/13 06:06:42;;;;;;;34.75;22.07;;;;;;;3.99;91.20;98665.66;1805143;78;21116;-58
2021/03/13 06:09:12;;;;;;;37.13;20.75;;;;;;;4.02;91.00;98679.41;1806225;79;21181;-60
2021/03/13 06:11:40;;;;;;;36.93;22.70;;;;;;;4.02;90.80;98679.41;1803995;79;21124;-59
2021/03/13 06:14:08;;;;;;;34.33;20.92;;;;;;;4.03;90.60;98686.24;1803936;78;21182;-60
2021/03/13 06:16:36;;;;;;;40.58;22.25;;;;;;;4.03;90.44;98686.66;1806431;79;21165;-59
2021/03/13 06:19:04;;;;;;;37.23;22.52;;;;;;;4.06;90.39;98689.30;1804717;79;21257;-61
2021/03/13 06:21:38;;;;;;;38.80;24.05;;;;;;;4.10;90.15;98685.62;1803032;79;21302;-60
2021/03/13 06:24:21;;;;;;;41.63;24.60;;;;;;;4.13;89.94;98693.38;1804006;79;21217;-60
2021/03/13 06:27:01;;;;;;;37.33;22.85;;;;;;;4.17;90.15;98691.77;1792621;79;21333;-62
2021/03/13 06:29:32;;;;;;;39.65;23.83;;;;;;;4.28;89.92;98696.83;1789285;79;21204;-61
2021/03/13 06:32:11;;;;;;;44.30;26.80;;;;;;;4.40;89.85;98695.47;1805328;79;21290;-61
2021/03/13 06:34:41;;;;;;;45.97;26.47;;;;;;;4.55;89.50;98698.11;1746764;81;21595;-61
2021/03/13 06:37:29;;;;;;;39.30;25.05;;;;;;;4.68;88.99;98703.56;1747128;81;21153;-60
2021/03/13 06:39:57;;;;;;;34.30;21.93;;;;;;;4.81;88.77;98696.74;1750588;81;21186;-59
2021/03/13 06:42:29;;;;;;;34.43;20.32;;;;;;;4.99;87.83;98706.22;1806039;77;21274;-60
2021/03/13 06:45:04;;;;;;;32.17;20.10;;;;;;;5.05;87.37;98704.23;1789402;80;21152;-61
2021/03/13 06:47:38;;;;;;;39.60;22.10;;;;;;;5.12;87.21;98700.18;1798009;79;21248;-60
2021/03/13 06:50:23;;;;;;;33.42;19.75;;;;;;;5.17;86.77;98702.45;1805881;78;21278;-62
2021/03/13 06:52:54;;;;;;;35.15;21.97;;;;;;;5.25;86.01;98703.53;1806384;79;21123;-59
2021/03/13 06:55:26;;;;;;;;;;;;;;;5.26;85.88;98699.27;1806099;78;21671;-60
2021/03/13 06:58:09;;;;;;;30.57;19.30;;;;;;;5.38;85.65;98698.33;1809459;79;20130;-59
2021/03/13 07:00:45;;;;;;;37.73;24.27;;;;;;;5.38;84.86;98700.47;1800136;79;21387;-60
2021/03/13 07:03:14;;;;;;;41.60;26.33;;;;;;;5.40;84.54;98688.59;1821577;78;21541;-61
2021/03/13 07:05:45;;;;;;;38.08;25.88;;;;;;;5.54;84.52;98693.20;1821478;78;21220;-62
2021/03/13 07:08:31;;;;;;;37.60;26.55;;;;;;;5.62;84.06;98694.27;1821601;79;21289;-62
2021/03/13 07:11:13;;;;;;;37.20;21.40;;;;;;;5.82;83.79;98693.51;1821437;79;21307;-62
2021/03/13 07:13:55;;;;;;;31.73;19.82;;;;;;;5.98;82.45;98687.09;1803155;79;21227;-61
2021/03/13 07:16:36;;;;;;;34.63;21.77;;;;;;;6.05;82.18;98697.95;1802646;79;21251;-61
2021/03/13 07:19:08;;;;;;;32.60;19.73;;;;;;;6.24;82.36;98695.02;1774524;80;21348;-61
2021/03/13 07:21:39;;;;;;;30.50;19.52;;;;;;;6.63;81.33;98701.88;1758440;82;21124;-62
2021/03/13 07:24:10;;;;;;;32.63;20.62;;;;;;;6.73;79.98;98702.53;1763370;80;21161;-62
2021/03/13 07:26:42;;;;;;;29.75;19.75;;;;;;;6.71;79.18;98706.76;1763530;80;21681;-62
2021/03/13 07:29:15;;;;;;;32.00;21.65;;;;;;;6.72;79.35;98708.51;1774251;80;21136;-62
2021/03/13 07:32:03;;;;;;;36.08;22.65;;;;;;;6.93;79.29;98707.23;1768118;80;21155;-61
2021/03/13 07:34:37;;;;;;;34.30;22.62;;;;;;;7.15;78.30;98705.58;1769307;80;21566;-60
2021/03/13 07:37:07;;;;;;;34.53;22.22;;;;;;;7.26;76.94;98706.20;1777981;80;21122;-61
2021/03/13 07:39:42;;;;;;;36.90;22.07;;;;;;;7.62;76.30;98703.47;1768043;80;21278;-63
2021/03/13 07:42:20;;;;;;;34.48;21.20;;;;;;;8.19;74.87;98701.88;1743041;81;21146;-61
2021/03/13 07:44:49;;;;;;;29.60;19.37;;;;;;;8.41;73.88;98710.41;1758310;80;21297;-61
2021/03/13 07:47:19;;;;;;;28.67;20.08;;;;;;;8.63;72.97;98708.17;1758211;82;21179;-61
2021/03/13 07:49:47;;;;;;;31.12;20.48;;;;;;;8.72;71.32;98712.14;1758366;82;21294;-63
2021/03/13 07:52:18;;;;;;;28.77;19.20;;;;;;;8.69;71.13;98706.53;1758285;82;21689;-61
2021/03/13 07:54:50;;;;;;;29.37;20.12;;;;;;;8.62;70.93;98709.00;1769980;80;21325;-61
2021/03/13 07:57:19;;;;;;;27.50;19.70;;;;;;;8.61;70.78;98712.00;1771856;80;21290;-62
2021/03/13 07:59:52;;;;;;;29.23;18.60;;;;;;;8.68;70.26;98711.67;1772672;79;21134;-63
2021/03/13 08:02:35;;;;;;;30.05;19.85;;;;;;;8.75;69.83;98704.50;1771744;80;21170;-63
2021/03/13 08:05:13;;;;;;;31.48;21.55;;;;;;;8.90;69.63;98717.57;1770535;80;21103;-63
2021/03/13 08:07:58;;;;;;;31.00;20.82;;;;;;;8.99;69.11;98723.25;1776496;80;21518;-60
2021/03/13 08:10:49;;;;;;;32.48;20.30;;;;;;;8.93;68.91;98712.00;1780978;80;21143;-68
2021/03/13 08:13:37;;;;;;;27.37;20.27;;;;;;;8.83;68.78;98715.75;1780783;80;21158;-70
2021/03/13 08:16:13;;;;;;;27.32;19.30;;;;;;;8.84;68.75;98718.75;1781081;80;21269;-67
2021/03/13 08:18:47;;;;;;;28.10;19.25;;;;;;;8.80;68.66;98714.43;1780994;80;21290;-69
2021/03/13 08:21:23;;;;;;;27.42;19.07;;;;;;;8.80;68.68;98718.29;1780931;80;21143;-66
2021/03/13 08:23:59;;;;;;;28.20;19.73;;;;;;;8.82;68.27;98711.86;1781004;80;21150;-69
2021/03/13 08:26:41;;;;;;;24.57;18.48;;;;;;;8.75;68.22;98709.64;1780921;79;21257;-67
2021/03/13 08:29:11;;;;;;;25.43;18.30;;;;;;;8.68;68.43;98715.53;1781093;80;21684;-69
2021/03/13 08:31:43;;;;;;;28.90;18.50;;;;;;;8.87;68.60;98713.64;1781098;80;21142;-66
2021/03/13 08:34:22;;;;;;;26.55;18.50;;;;;;;9.18;67.90;98714.04;1780148;80;21550;-68
2021/03/13 08:36:50;;;;;;;27.32;20.30;;;;;;;9.24;67.59;98720.57;1750378;80;21112;-65
2021/03/13 08:39:21;;;;;;;27.93;19.70;;;;;;;9.17;67.29;98716.19;1748746;82;21155;-66
2021/03/13 08:41:52;;;;;;;30.92;21.50;;;;;;;9.12;67.38;98719.13;1748628;82;21249;-65
2021/03/13 08:44:35;;;;;;;34.67;21.45;;;;;;;9.10;67.47;98715.66;1778598;80;21285;-63
2021/03/13 08:47:09;;;;;;;28.70;21.35;;;;;;;9.13;67.50;98720.45;1781270;80;21147;-61
2021/03/13 08:49:41;;;;;;;31.77;20.68;;;;;;;9.21;66.87;98723.11;1770087;80;21265;-60
2021/03/13 08:52:18;;;;;;;27.93;19.65;;;;;;;9.33;66.99;98725.81;1781247;80;21613;-59
2021/03/13 08:54:48;;;;;;;29.75;21.55;;;;;;;9.38;66.61;98724.59;1781211;80;21277;-60
2021/03/13 08:57:30;;;;;;;29.92;20.68;;;;;;;9.26;66.61;98725.33;1780813;80;21119;-62
2021/03/13 09:00:01;;;;;;;29.98;20.12;;;;;;;9.13;66.79;98728.17;1781114;80;21158;-60
2021/03/13 09:02:39;;;;;;;27.42;19.90;;;;;;;8.91;66.92;98733.44;1787476;80;21311;-64
2021/03/13 09:05:14;;;;;;;30.88;21.42;;;;;;;8.65;67.41;98727.05;1795048;78;21170;-62
2021/03/13 09:07:51;;;;;;;31.77;21.97;;;;;;;8.31;68.27;98728.21;1795039;80;21111;-61
2021/03/13 09:10:20;;;;;;;34.35;23.18;;;;;;;7.97;69.29;98725.94;1795009;79;21548;-61
2021/03/13 09:12:48;;;;;;;28.55;21.95;;;;;;;7.80;70.02;98725.63;1795010;80;21114;-61
2021/03/13 09:15:18;;;;;;;32.80;23.73;;;;;;;7.72;70.53;98726.34;1794879;78;21122;-60
2021/03/13 09:17:46;;;;;;;36.68;24.40;;;;;;;7.64;71.12;98722.34;1794879;80;21288;-59
2021/03/13 09:20:17;;;;;;;35.83;24.18;;;;;;;7.59;71.51;98719.69;1794894;78;21256;-61
2021/03/13 09:22:48;;;;;;;30.47;21.63;;;;;;;7.67;71.70;98718.97;1795305;80;21272;-58
2021/03/13 09:25:20;;;;;;;31.27;21.90;;;;;;;7.70;71.76;98720.30;1794886;80;21114;-60
2021/03/13 09:27:50;;;;;;;29.40;19.92;;;;;;;7.81;72.02;98720.06;1795082;78;21557;-60
2021/03/13 09:30:22;;;;;;;33.00;22.27;;;;;;;7.88;71.58;98711.64;1794882;80;21133;-58
2021/03/13 09:32:52;;;;;;;34.08;21.70;;;;;;;7.87;71.41;98707.35;1795181;80;21102;-61
2021/03/13 09:35:24;;;;;;;32.38;22.37;;;;;;;7.93;71.61;98715.58;1794985;80;21534;-59
2021/03/13 09:37:52;;;;;;;38.90;22.70;;;;;;;8.16;71.34;98724.53;1794967;80;21118;-63
2021/03/13 09:40:24;;;;;;;32.25;22.65;;;;;;;8.52;70.30;98722.56;1794896;80;21142;-57
2021/03/13 09:42:53;;;;;;;32.90;23.07;;;;;;;8.81;69.45;98725.16;1794830;80;21119;-60
2021/03/13 09:45:24;;;;;;;35.75;24.60;;;;;;;9.12;68.58;98723.84;1795074;80;21502;-63
2021/03/13 09:48:00;;;;;;;36.63;23.85;;;;;;;9.35;67.70;98718.13;1794999;79;21256;-63
2021/03/13 09:50:32;;;;;;;32.50;23.02;;;;;;;9.54;67.13;98717.50;1794929;80;21131;-62
2021/03/13 09:53:02;;;;;;;34.85;24.98;;;;;;;9.67;66.37;98715.05;1794776;78;21225;-59
2021/03/13 09:55:31;;;;;;;36.05;25.50;;;;;;;9.56;66.06;98707.19;1795118;80;21605;-59
2021/03/13 09:58:02;;;;;;;40.90;25.65;;;;;;;9.44;66.23;98708.33;1795023;80;21573;-59
2021/03/13 10:00:34;;;;;;;37.95;25.25;;;;;;;9.45;66.51;98715.23;1794844;80;21131;-62
2021/03/13 10:03:04;;;;;;;31.30;22.62;;;;;;;9.49;66.30;98709.25;1787313;80;21189;-62
2021/03/13 10:05:33;;;;;;;32.30;22.70;;;;;;;9.50;66.01;98707.99;1780914;79;21585;-63
2021/03/13 10:08:06;;;;;;;35.00;24.52;;;;;;;9.49;65.91;98709.25;1781097;80;21135;-60
2021/03/13 10:10:36;;;;;;;35.38;24.45;;;;;;;9.45;66.08;98712.66;1780925;80;21134;-58
2021/03/13 10:13:06;;;;;;;29.48;21.93;;;;;;;9.42;66.08;98718.64;1781384;80;21166;-62
2021/03/13 10:15:38;;;;;;;30.97;21.75;;;;;;;9.44;66.01;98716.95;1780965;80;21162;-63
2021/03/13 10:18:14;;;;;;;32.05;22.10;;;;;;;9.47;66.12;98717.41;1780947;80;21135;-58
2021/03/13 10:20:50;;;;;;;35.43;24.98;;;;;;;9.55;65.54;98710.63;1781265;79;21134;-61
2021/03/13 10:26:09;;;;;;;41.33;26.55;;;;;;;9.46;65.71;98710.51;1870634;76;22121;-59
2021/03/13 10:28:41;;;;;;;42.15;27.32;;;;;;;9.27;65.83;98713.30;1827676;78;21272;-62
2021/03/13 10:31:19;;;;;;;39.25;26.57;;;;;;;9.14;66.50;98720.02;1827579;77;21256;-62
2021/03/13 10:33:49;;;;;;;40.43;27.87;;;;;;;9.09;66.52;98717.38;1827734;77;21285;-60
2021/03/13 10:36:20;;;;;;;37.80;26.65;;;;;;;8.87;67.06;98718.79;1827895;77;21166;-61
2021/03/13 10:38:51;;;;;;;42.40;27.17;;;;;;;8.67;67.67;98713.36;1827505;77;21546;-58
2021/03/13 10:41:22;;;;;;;40.53;26.87;;;;;;;8.67;67.89;98714.64;1828027;78;21134;-59
2021/03/13 10:43:54;;;;;;;;;;;;;;;8.69;68.07;98710.82;1830433;77;21119;-62
2021/03/13 10:46:27;;;;;;;40.80;26.95;;;;;;;8.67;67.95;98706.07;1827768;77;20159;-61
2021/03/13 10:49:02;;;;;;;44.00;28.62;;;;;;;8.62;68.01;98701.28;1827757;77;21138;-61
2021/03/13 10:51:42;;;;;;;43.73;27.00;;;;;;;8.58;68.11;98706.81;1827556;78;21261;-59
2021/03/13 10:54:23;;;;;;;41.63;27.62;;;;;;;8.61;67.95;98697.84;1827695;78;21106;-63
2021/03/13 10:56:52;;;;;;;45.00;26.75;;;;;;;8.61;67.95;98705.99;1828120;77;21666;-62
2021/03/13 10:59:35;;;;;;;43.63;27.07;;;;;;;8.36;68.25;98687.58;1827746;78;21161;-62
2021/03/13 11:02:04;;;;;;;42.30;27.77;;;;;;;8.30;68.66;98695.22;1827550;78;21170;-62
2021/03/13 11:04:32;;;;;;;40.60;26.90;;;;;;;8.30;68.99;98702.07;1827507;78;21131;-62
2021/03/13 11:07:00;;;;;;;40.00;26.10;;;;;;;8.26;68.64;98692.14;1827519;78;21253;-62
2021/03/13 11:09:29;;;;;;;39.98;25.62;;;;;;;8.20;68.94;98695.48;1827825;78;21140;-61
2021/03/13 11:11:57;;;;;;;38.90;24.55;;;;;;;8.29;68.83;98694.75;1827531;78;21122;-63
2021/03/13 11:14:25;;;;;;;38.83;25.68;;;;;;;8.43;68.39;98690.73;1827523;77;21288;-59
2021/03/13 11:16:53;;;;;;;39.05;25.75;;;;;;;8.44;68.04;98691.16;1827720;78;21133;-61
2021/03/13 11:19:25;;;;;;;39.40;24.77;;;;;;;8.57;67.88;98695.20;1827602;78;21145;-60
2021/03/13 11:21:51;;;;;;;35.35;24.80;;;;;;;8.54;67.62;98692.59;1827735;78;21107;-59
2021/03/13 11:24:20;;;;;;;39.33;26.05;;;;;;;8.65;67.60;98691.92;1827361;77;21269;-61
2021/03/13 11:26:49;;;;;;;38.30;24.07;;;;;;;8.68;67.27;98689.38;1828170;77;21288;-60
2021/03/13 11:29:17;;;;;;;36.42;24.25;;;;;;;8.82;66.65;98680.55;1828176;78;21264;-60
2021/03/13 11:31:45;;;;;;;39.53;25.52;;;;;;;8.87;66.13;98681.48;1827907;77;21122;-62
2021/03/13 11:34:13;;;;;;;36.40;24.20;;;;;;;8.98;66.16;98693.62;1827889;78;21264;-62
2021/03/13 11:36:41;;;;;;;35.68;25.15;;;;;;;9.03;65.77;98685.53;1827387;78;21168;-58
2021/03/13 11:39:10;;;;;;;35.50;24.02;;;;;;;9.04;65.74;98689.86;1827254;77;21162;-61
2021/03/13 11:41:42;;;;;;;34.35;22.87;;;;;;;9.12;65.69;98688.23;1827226;78;21102;-63
2021/03/13 11:44:11;;;;;;;31.57;20.70;;;;;;;9.27;65.60;98681.13;1827481;78;21687;-61
2021/03/13 11:46:39;;;;;;;30.02;19.12;;;;;;;9.48;65.35;98681.77;1827203;78;21161;-60
2021/03/13 11:49:07;;;;;;;28.67;19.10;;;;;;;9.68;64.72;98677.69;1827479;77;21130;-61
2021/03/13 11:51:35;;;;;;;28.45;19.27;;;;;;;9.89;64.22;98673.59;1827589;78;21141;-61